METAR AND TAF INFORMATION
METAR FOR YSCB
YSCB 260300Z AUTO 17004KT 120V200 9999 // NCD 28/10 Q1016 RF00.0/000.0
YSCB 260230Z AUTO 02005KT 360V090 9999 // NCD 28/11 Q1016 RF00.0/000.0
YSCB 260200Z AUTO 02003KT 9999 // NCD 27/13 Q1016 RF00.0/000.0
YSCB 260130Z AUTO 36004KT 320V050 9999 // NCD 26/12 Q1017 RF00.0/000.0
YSCB 260100Z AUTO 26003KT 9999 // NCD 24/13 Q1017 RF00.0/000.0
YSCB 260030Z AUTO 35002KT 9999 // NCD 24/15 Q1017 RF00.0/000.0

TAF YSCB 260222Z 2603/2700 04008KT CAVOK
FM260700 08015G25KT CAVOK
FM260900 12008KT 9999 BKN015
BECMG 2622/2700 07008KT 9999 SCT020 BKN030

 AIRPORT MAP

 RUNWAY INFORMATION
Runway 12 Runway length 5509 ft Runway width 148 ft
Runway elevation 1849 ft Runway displaced threshold 0 ft Runway heading 130
Runway 30 Runway length 5509 ft Runway width 148 ft
Runway elevation 1886 ft Runway displaced threshold 214 ft Runway heading 310
Runway 17 Runway length 10771 ft Runway width 148 ft
Runway elevation 1874 ft Runway displaced threshold 0 ft Runway heading 180
Runway 35 Runway length 10771 ft Runway width 148 ft
Runway elevation 1870 ft Runway displaced threshold 1968 ft Runway heading 360

 AIRPORT FREQUENCIES
Type APP/DEP EA Name Approach/D Frequency 124.5 MHZ
Type ATIS/VOR Name ATIS AH Frequency 116.7 MHZ
Type APP/DEP WE Name Approach/D Frequency 125.9 MHZ
Type GCCD Name GND CLNC D Frequency 121.7 MHZ
Type TWR/CTAF Name TWR (CTAF Frequency 118.7 MHZ
Type ATIS Name ATIS Frequency 127.45 MHZ

 AIRPORT NEAR NAVIGATION AIDS
Type VOR-DME Name Canberra Frequency 116700 KHZ
Type NDB Name Canberra Frequency 263 KHZ
Type NDB Name Church Creek Frequency 248 KHZ

-